Search for airport 
image banner adimage banner adimage banner ad
image banner ad

LA22 - Pg&E Livermore Training Center

Located in Livermore, United States

ICAO - LA22, IATA -

Data provided by Airmate  

General information

Coordinates: N37°41'57" W121°42'35"
Elevation is 572 feet MSL.
 
View others Airports in California

Operational data

Special qualification required
Current time UTC:
Current local time:
Weather at : KLVK - Livermore Muni ( 10 km )
METAR: KLVK 211202Z AUTO 31006KT 10SM BKN012 14/12 A2988 RMK AO2 T01390117
TAF: KLVK 211139Z 2112/2212 30007KT P6SM SKC FM211500 29012KT P6SM SKC FM220200 30005KT P6SM SKC
View NOTAMs / SUP AIP / TFR affecting this airport [VIEW]
Communications frequencies: [VIEW]

Runways:

Airport contact information

Address: Livermore United States

Satellite view of LA22